sensor_id;sensor_type;location;lat;lon;timestamp;P1;durP1;ratioP1;P2;durP2;ratioP2
21000;SDS011;10658;50.920;12.238;2023-06-22T00:02:41;36.25;;;11.52;;
21000;SDS011;10658;50.920;12.238;2023-06-22T00:06:42;40.05;;;10.68;;
21000;SDS011;10658;50.920;12.238;2023-06-22T00:10:43;36.83;;;11.73;;
21000;SDS011;10658;50.920;12.238;2023-06-22T00:14:44;51.80;;;12.00;;
21000;SDS011;10658;50.920;12.238;2023-06-22T00:18:45;37.22;;;11.38;;
21000;SDS011;10658;50.920;12.238;2023-06-22T00:22:47;43.22;;;13.00;;
21000;SDS011;10658;50.920;12.238;2023-06-22T00:26:48;46.78;;;12.27;;
21000;SDS011;10658;50.920;12.238;2023-06-22T00:30:50;29.30;;;9.55;;
21000;SDS011;10658;50.920;12.238;2023-06-22T00:34:52;57.80;;;15.45;;
21000;SDS011;10658;50.920;12.238;2023-06-22T00:38:53;52.33;;;12.57;;
21000;SDS011;10658;50.920;12.238;2023-06-22T00:42:54;40.50;;;12.25;;
21000;SDS011;10658;50.920;12.238;2023-06-22T00:46:55;45.00;;;13.60;;
21000;SDS011;10658;50.920;12.238;2023-06-22T00:50:56;45.22;;;13.43;;
21000;SDS011;10658;50.920;12.238;2023-06-22T00:54:57;49.80;;;15.05;;
21000;SDS011;10658;50.920;12.238;2023-06-22T00:59:01;46.78;;;14.27;;
21000;SDS011;10658;50.920;12.238;2023-06-22T01:03:03;57.60;;;13.55;;
21000;SDS011;10658;50.920;12.238;2023-06-22T01:11:32;58.70;;;14.55;;
21000;SDS011;10658;50.920;12.238;2023-06-22T01:20:12;58.72;;;14.40;;
21000;SDS011;10658;50.920;12.238;2023-06-22T01:24:22;38.08;;;13.35;;
21000;SDS011;10658;50.920;12.238;2023-06-22T01:28:43;34.03;;;12.20;;
21000;SDS011;10658;50.920;12.238;2023-06-22T01:32:46;44.30;;;12.93;;
21000;SDS011;10658;50.920;12.238;2023-06-22T01:36:48;74.80;;;16.35;;
21000;SDS011;10658;50.920;12.238;2023-06-22T01:40:51;77.30;;;16.75;;
21000;SDS011;10658;50.920;12.238;2023-06-22T01:44:53;49.35;;;13.38;;
21000;SDS011;10658;50.920;12.238;2023-06-22T01:48:54;40.85;;;14.25;;
21000;SDS011;10658;50.920;12.238;2023-06-22T01:52:56;48.63;;;14.55;;
21000;SDS011;10658;50.920;12.238;2023-06-22T01:56:57;46.28;;;15.80;;
21000;SDS011;10658;50.920;12.238;2023-06-22T02:00:58;57.58;;;15.40;;
21000;SDS011;10658;50.920;12.238;2023-06-22T02:05:09;36.92;;;14.43;;
21000;SDS011;10658;50.920;12.238;2023-06-22T02:09:15;56.88;;;17.63;;
21000;SDS011;10658;50.920;12.238;2023-06-22T02:13:20;53.50;;;15.30;;
21000;SDS011;10658;50.920;12.238;2023-06-22T02:17:21;50.42;;;16.10;;
21000;SDS011;10658;50.920;12.238;2023-06-22T02:21:24;77.13;;;19.30;;
21000;SDS011;10658;50.920;12.238;2023-06-22T02:25:25;57.33;;;16.33;;
21000;SDS011;10658;50.920;12.238;2023-06-22T02:29:26;40.33;;;16.42;;
21000;SDS011;10658;50.920;12.238;2023-06-22T02:33:27;44.83;;;15.70;;
21000;SDS011;10658;50.920;12.238;2023-06-22T02:37:28;38.50;;;13.45;;
21000;SDS011;10658;50.920;12.238;2023-06-22T02:41:30;48.20;;;14.60;;
21000;SDS011;10658;50.920;12.238;2023-06-22T02:45:31;49.05;;;14.43;;
21000;SDS011;10658;50.920;12.238;2023-06-22T02:49:32;64.45;;;14.38;;
21000;SDS011;10658;50.920;12.238;2023-06-22T02:53:34;62.05;;;16.10;;
21000;SDS011;10658;50.920;12.238;2023-06-22T02:57:34;64.65;;;15.48;;
21000;SDS011;10658;50.920;12.238;2023-06-22T03:01:35;73.28;;;17.25;;
21000;SDS011;10658;50.920;12.238;2023-06-22T03:05:43;53.03;;;14.40;;
21000;SDS011;10658;50.920;12.238;2023-06-22T03:09:44;43.50;;;13.65;;
21000;SDS011;10658;50.920;12.238;2023-06-22T03:13:45;34.85;;;13.68;;
21000;SDS011;10658;50.920;12.238;2023-06-22T03:17:46;45.40;;;15.68;;
21000;SDS011;10658;50.920;12.238;2023-06-22T03:21:47;41.25;;;14.07;;
21000;SDS011;10658;50.920;12.238;2023-06-22T03:25:48;42.58;;;14.40;;
21000;SDS011;10658;50.920;12.238;2023-06-22T03:29:49;54.28;;;17.20;;
21000;SDS011;10658;50.920;12.238;2023-06-22T03:33:50;49.00;;;17.80;;
21000;SDS011;10658;50.920;12.238;2023-06-22T03:37:51;45.90;;;17.13;;
21000;SDS011;10658;50.920;12.238;2023-06-22T03:41:51;53.55;;;16.77;;
21000;SDS011;10658;50.920;12.238;2023-06-22T03:45:52;53.78;;;16.50;;
21000;SDS011;10658;50.920;12.238;2023-06-22T03:49:53;59.85;;;18.55;;
21000;SDS011;10658;50.920;12.238;2023-06-22T03:53:55;58.85;;;17.70;;
21000;SDS011;10658;50.920;12.238;2023-06-22T03:57:56;46.97;;;14.10;;
21000;SDS011;10658;50.920;12.238;2023-06-22T04:01:57;37.50;;;15.48;;
21000;SDS011;10658;50.920;12.238;2023-06-22T04:05:57;42.63;;;14.00;;
21000;SDS011;10658;50.920;12.238;2023-06-22T04:09:58;22.95;;;11.52;;
21000;SDS011;10658;50.920;12.238;2023-06-22T04:13:59;26.35;;;13.43;;
21000;SDS011;10658;50.920;12.238;2023-06-22T04:18:00;24.67;;;12.15;;
21000;SDS011;10658;50.920;12.238;2023-06-22T04:22:01;27.42;;;12.93;;
21000;SDS011;10658;50.920;12.238;2023-06-22T04:26:01;19.75;;;11.55;;
21000;SDS011;10658;50.920;12.238;2023-06-22T04:30:03;26.70;;;12.50;;
21000;SDS011;10658;50.920;12.238;2023-06-22T04:34:04;18.33;;;10.63;;
21000;SDS011;10658;50.920;12.238;2023-06-22T04:38:06;23.42;;;12.32;;
21000;SDS011;10658;50.920;12.238;2023-06-22T04:42:07;21.33;;;10.90;;
21000;SDS011;10658;50.920;12.238;2023-06-22T04:46:08;22.55;;;11.80;;
21000;SDS011;10658;50.920;12.238;2023-06-22T04:50:09;25.52;;;13.18;;
21000;SDS011;10658;50.920;12.238;2023-06-22T04:54:10;23.33;;;12.35;;
21000;SDS011;10658;50.920;12.238;2023-06-22T04:58:11;22.58;;;11.85;;
21000;SDS011;10658;50.920;12.238;2023-06-22T05:02:13;27.05;;;13.35;;
21000;SDS011;10658;50.920;12.238;2023-06-22T05:06:14;22.33;;;12.45;;
21000;SDS011;10658;50.920;12.238;2023-06-22T05:10:14;22.98;;;13.90;;
21000;SDS011;10658;50.920;12.238;2023-06-22T05:14:15;15.23;;;10.18;;
21000;SDS011;10658;50.920;12.238;2023-06-22T05:18:16;17.25;;;10.02;;
21000;SDS011;10658;50.920;12.238;2023-06-22T05:22:17;15.30;;;10.07;;
21000;SDS011;10658;50.920;12.238;2023-06-22T05:26:18;20.73;;;11.23;;
21000;SDS011;10658;50.920;12.238;2023-06-22T05:30:19;16.45;;;10.65;;
21000;SDS011;10658;50.920;12.238;2023-06-22T05:34:20;15.32;;;9.75;;
21000;SDS011;10658;50.920;12.238;2023-06-22T05:38:21;17.00;;;10.90;;
21000;SDS011;10658;50.920;12.238;2023-06-22T05:42:21;22.27;;;12.07;;
21000;SDS011;10658;50.920;12.238;2023-06-22T05:46:22;18.20;;;11.45;;
21000;SDS011;10658;50.920;12.238;2023-06-22T05:50:23;19.23;;;11.82;;
21000;SDS011;10658;50.920;12.238;2023-06-22T05:54:23;15.30;;;10.98;;
21000;SDS011;10658;50.920;12.238;2023-06-22T05:58:24;14.70;;;10.27;;
21000;SDS011;10658;50.920;12.238;2023-06-22T06:02:25;13.18;;;9.88;;
21000;SDS011;10658;50.920;12.238;2023-06-22T06:06:25;18.00;;;10.35;;
21000;SDS011;10658;50.920;12.238;2023-06-22T06:10:28;18.13;;;11.18;;
21000;SDS011;10658;50.920;12.238;2023-06-22T06:14:32;18.95;;;10.80;;
21000;SDS011;10658;50.920;12.238;2023-06-22T06:18:32;22.48;;;10.95;;
21000;SDS011;10658;50.920;12.238;2023-06-22T06:22:33;14.30;;;10.75;;
21000;SDS011;10658;50.920;12.238;2023-06-22T06:26:34;14.73;;;10.52;;
21000;SDS011;10658;50.920;12.238;2023-06-22T06:30:35;12.80;;;8.85;;
21000;SDS011;10658;50.920;12.238;2023-06-22T06:34:37;12.55;;;9.20;;
21000;SDS011;10658;50.920;12.238;2023-06-22T06:38:38;13.13;;;9.82;;
21000;SDS011;10658;50.920;12.238;2023-06-22T06:42:39;15.68;;;8.38;;
21000;SDS011;10658;50.920;12.238;2023-06-22T06:46:41;14.27;;;8.48;;
21000;SDS011;10658;50.920;12.238;2023-06-22T06:50:42;11.00;;;8.85;;
21000;SDS011;10658;50.920;12.238;2023-06-22T06:54:44;10.20;;;7.90;;
21000;SDS011;10658;50.920;12.238;2023-06-22T06:58:44;11.15;;;7.57;;
21000;SDS011;10658;50.920;12.238;2023-06-22T07:02:45;11.65;;;6.88;;
21000;SDS011;10658;50.920;12.238;2023-06-22T07:06:48;11.13;;;7.97;;
21000;SDS011;10658;50.920;12.238;2023-06-22T07:10:49;10.82;;;7.03;;
21000;SDS011;10658;50.920;12.238;2023-06-22T07:14:49;11.35;;;8.10;;
21000;SDS011;10658;50.920;12.238;2023-06-22T07:18:51;16.13;;;8.07;;
21000;SDS011;10658;50.920;12.238;2023-06-22T07:22:51;12.57;;;8.93;;
21000;SDS011;10658;50.920;12.238;2023-06-22T07:26:53;11.98;;;7.90;;
21000;SDS011;10658;50.920;12.238;2023-06-22T07:30:54;9.05;;;7.95;;
21000;SDS011;10658;50.920;12.238;2023-06-22T07:34:55;12.23;;;8.40;;
21000;SDS011;10658;50.920;12.238;2023-06-22T07:38:56;15.43;;;9.52;;
21000;SDS011;10658;50.920;12.238;2023-06-22T07:42:56;16.77;;;10.05;;
21000;SDS011;10658;50.920;12.238;2023-06-22T07:46:57;13.07;;;9.13;;
21000;SDS011;10658;50.920;12.238;2023-06-22T07:50:58;14.23;;;9.45;;
21000;SDS011;10658;50.920;12.238;2023-06-22T07:54:59;12.68;;;8.32;;
21000;SDS011;10658;50.920;12.238;2023-06-22T07:58:59;13.15;;;9.52;;
21000;SDS011;10658;50.920;12.238;2023-06-22T08:03:02;10.52;;;8.25;;
21000;SDS011;10658;50.920;12.238;2023-06-22T08:07:05;11.95;;;8.95;;
21000;SDS011;10658;50.920;12.238;2023-06-22T08:11:06;11.82;;;8.18;;
21000;SDS011;10658;50.920;12.238;2023-06-22T08:15:06;13.35;;;8.95;;
21000;SDS011;10658;50.920;12.238;2023-06-22T08:19:08;9.85;;;8.48;;
21000;SDS011;10658;50.920;12.238;2023-06-22T08:23:08;10.00;;;7.57;;
21000;SDS011;10658;50.920;12.238;2023-06-22T08:27:09;9.70;;;8.00;;
21000;SDS011;10658;50.920;12.238;2023-06-22T08:31:13;12.13;;;8.43;;
21000;SDS011;10658;50.920;12.238;2023-06-22T08:35:14;9.30;;;8.27;;
21000;SDS011;10658;50.920;12.238;2023-06-22T08:39:15;8.65;;;7.70;;
21000;SDS011;10658;50.920;12.238;2023-06-22T08:43:16;12.43;;;8.43;;
21000;SDS011;10658;50.920;12.238;2023-06-22T08:47:17;11.10;;;8.43;;
21000;SDS011;10658;50.920;12.238;2023-06-22T08:51:18;15.20;;;8.73;;
21000;SDS011;10658;50.920;12.238;2023-06-22T08:55:19;9.90;;;8.50;;
21000;SDS011;10658;50.920;12.238;2023-06-22T08:59:19;9.02;;;8.00;;
21000;SDS011;10658;50.920;12.238;2023-06-22T09:03:20;9.75;;;7.72;;
21000;SDS011;10658;50.920;12.238;2023-06-22T09:07:21;9.32;;;7.35;;
21000;SDS011;10658;50.920;12.238;2023-06-22T09:11:23;9.88;;;8.45;;
21000;SDS011;10658;50.920;12.238;2023-06-22T09:15:24;10.52;;;8.60;;
21000;SDS011;10658;50.920;12.238;2023-06-22T09:19:25;8.88;;;7.78;;
21000;SDS011;10658;50.920;12.238;2023-06-22T09:23:25;8.95;;;7.47;;
21000;SDS011;10658;50.920;12.238;2023-06-22T09:27:26;22.10;;;9.23;;
21000;SDS011;10658;50.920;12.238;2023-06-22T09:31:27;9.20;;;8.07;;
21000;SDS011;10658;50.920;12.238;2023-06-22T09:35:28;9.93;;;7.60;;
21000;SDS011;10658;50.920;12.238;2023-06-22T09:39:28;8.57;;;7.38;;
21000;SDS011;10658;50.920;12.238;2023-06-22T09:43:30;8.57;;;7.68;;
21000;SDS011;10658;50.920;12.238;2023-06-22T09:47:32;9.45;;;8.05;;
21000;SDS011;10658;50.920;12.238;2023-06-22T09:51:33;10.57;;;7.60;;
21000;SDS011;10658;50.920;12.238;2023-06-22T09:55:34;9.48;;;7.80;;
21000;SDS011;10658;50.920;12.238;2023-06-22T09:59:34;10.98;;;7.88;;
21000;SDS011;10658;50.920;12.238;2023-06-22T10:03:35;8.60;;;7.70;;
21000;SDS011;10658;50.920;12.238;2023-06-22T10:07:36;8.07;;;7.30;;
21000;SDS011;10658;50.920;12.238;2023-06-22T10:15:45;8.45;;;7.55;;
21000;SDS011;10658;50.920;12.238;2023-06-22T10:19:51;7.93;;;7.13;;
21000;SDS011;10658;50.920;12.238;2023-06-22T10:23:53;8.68;;;7.13;;
21000;SDS011;10658;50.920;12.238;2023-06-22T10:28:06;8.48;;;7.68;;
21000;SDS011;10658;50.920;12.238;2023-06-22T10:32:08;8.88;;;7.53;;
21000;SDS011;10658;50.920;12.238;2023-06-22T10:36:10;9.00;;;8.10;;
21000;SDS011;10658;50.920;12.238;2023-06-22T10:40:15;8.77;;;7.60;;
21000;SDS011;10658;50.920;12.238;2023-06-22T10:44:18;7.80;;;7.05;;
21000;SDS011;10658;50.920;12.238;2023-06-22T10:48:20;8.73;;;7.45;;
21000;SDS011;10658;50.920;12.238;2023-06-22T10:52:21;7.63;;;6.78;;
21000;SDS011;10658;50.920;12.238;2023-06-22T10:56:22;7.80;;;6.85;;
21000;SDS011;10658;50.920;12.238;2023-06-22T11:00:23;8.27;;;7.53;;
21000;SDS011;10658;50.920;12.238;2023-06-22T11:04:24;7.88;;;6.72;;
21000;SDS011;10658;50.920;12.238;2023-06-22T11:08:26;7.78;;;6.97;;
21000;SDS011;10658;50.920;12.238;2023-06-22T11:12:26;8.50;;;6.55;;
21000;SDS011;10658;50.920;12.238;2023-06-22T11:16:28;10.50;;;6.97;;
21000;SDS011;10658;50.920;12.238;2023-06-22T11:20:29;9.35;;;6.78;;
21000;SDS011;10658;50.920;12.238;2023-06-22T11:24:30;8.25;;;7.40;;
21000;SDS011;10658;50.920;12.238;2023-06-22T11:28:31;7.30;;;5.78;;
21000;SDS011;10658;50.920;12.238;2023-06-22T11:32:32;7.03;;;6.35;;
21000;SDS011;10658;50.920;12.238;2023-06-22T11:36:34;7.60;;;6.72;;
21000;SDS011;10658;50.920;12.238;2023-06-22T11:40:35;7.60;;;6.68;;
21000;SDS011;10658;50.920;12.238;2023-06-22T11:44:36;7.22;;;6.53;;
21000;SDS011;10658;50.920;12.238;2023-06-22T11:48:37;7.53;;;6.43;;
21000;SDS011;10658;50.920;12.238;2023-06-22T11:52:38;6.93;;;6.15;;
21000;SDS011;10658;50.920;12.238;2023-06-22T11:56:39;8.52;;;7.15;;
21000;SDS011;10658;50.920;12.238;2023-06-22T12:00:40;9.00;;;7.28;;
21000;SDS011;10658;50.920;12.238;2023-06-22T12:04:42;8.43;;;6.63;;
21000;SDS011;10658;50.920;12.238;2023-06-22T12:08:43;8.98;;;7.22;;
21000;SDS011;10658;50.920;12.238;2023-06-22T12:12:44;10.02;;;7.28;;
21000;SDS011;10658;50.920;12.238;2023-06-22T12:16:50;9.02;;;6.82;;
21000;SDS011;10658;50.920;12.238;2023-06-22T12:21:00;7.55;;;6.85;;
21000;SDS011;10658;50.920;12.238;2023-06-22T12:25:01;7.72;;;7.05;;
21000;SDS011;10658;50.920;12.238;2023-06-22T12:29:02;8.80;;;6.97;;
21000;SDS011;10658;50.920;12.238;2023-06-22T12:33:03;7.80;;;7.00;;
21000;SDS011;10658;50.920;12.238;2023-06-22T12:37:03;8.10;;;6.75;;
21000;SDS011;10658;50.920;12.238;2023-06-22T12:41:06;9.38;;;7.32;;
21000;SDS011;10658;50.920;12.238;2023-06-22T12:45:09;8.05;;;7.03;;
21000;SDS011;10658;50.920;12.238;2023-06-22T12:49:16;7.78;;;6.95;;
21000;SDS011;10658;50.920;12.238;2023-06-22T12:53:17;8.32;;;7.07;;
21000;SDS011;10658;50.920;12.238;2023-06-22T12:57:18;9.55;;;7.82;;
21000;SDS011;10658;50.920;12.238;2023-06-22T13:01:20;10.30;;;7.82;;
21000;SDS011;10658;50.920;12.238;2023-06-22T13:05:20;8.60;;;7.40;;
21000;SDS011;10658;50.920;12.238;2023-06-22T13:09:21;7.28;;;6.65;;
21000;SDS011;10658;50.920;12.238;2023-06-22T13:13:25;10.90;;;6.82;;
21000;SDS011;10658;50.920;12.238;2023-06-22T13:17:27;7.00;;;6.18;;
21000;SDS011;10658;50.920;12.238;2023-06-22T13:21:28;8.60;;;7.10;;
21000;SDS011;10658;50.920;12.238;2023-06-22T13:25:29;8.05;;;7.28;;
21000;SDS011;10658;50.920;12.238;2023-06-22T13:29:29;7.63;;;6.85;;
21000;SDS011;10658;50.920;12.238;2023-06-22T13:33:30;8.27;;;7.38;;
21000;SDS011;10658;50.920;12.238;2023-06-22T13:37:31;8.23;;;6.50;;
21000;SDS011;10658;50.920;12.238;2023-06-22T13:41:32;9.07;;;6.78;;
21000;SDS011;10658;50.920;12.238;2023-06-22T13:45:33;9.23;;;7.05;;
21000;SDS011;10658;50.920;12.238;2023-06-22T13:49:34;9.75;;;7.93;;
21000;SDS011;10658;50.920;12.238;2023-06-22T13:53:35;9.63;;;6.82;;
21000;SDS011;10658;50.920;12.238;2023-06-22T13:57:36;9.70;;;7.82;;
21000;SDS011;10658;50.920;12.238;2023-06-22T14:01:37;10.52;;;8.00;;
21000;SDS011;10658;50.920;12.238;2023-06-22T14:05:43;8.30;;;7.03;;
21000;SDS011;10658;50.920;12.238;2023-06-22T14:09:45;11.40;;;8.15;;
21000;SDS011;10658;50.920;12.238;2023-06-22T14:13:45;9.63;;;7.57;;
21000;SDS011;10658;50.920;12.238;2023-06-22T14:17:46;8.02;;;7.00;;
21000;SDS011;10658;50.920;12.238;2023-06-22T14:21:47;8.90;;;7.82;;
21000;SDS011;10658;50.920;12.238;2023-06-22T14:25:48;13.07;;;7.65;;
21000;SDS011;10658;50.920;12.238;2023-06-22T14:29:49;11.40;;;8.05;;
21000;SDS011;10658;50.920;12.238;2023-06-22T14:33:50;8.63;;;7.80;;
21000;SDS011;10658;50.920;12.238;2023-06-22T14:37:50;10.30;;;7.00;;
21000;SDS011;10658;50.920;12.238;2023-06-22T14:41:51;10.80;;;7.03;;
21000;SDS011;10658;50.920;12.238;2023-06-22T14:45:52;10.50;;;7.60;;
21000;SDS011;10658;50.920;12.238;2023-06-22T14:49:53;9.15;;;7.47;;
21000;SDS011;10658;50.920;12.238;2023-06-22T14:53:55;10.27;;;7.53;;
21000;SDS011;10658;50.920;12.238;2023-06-22T14:57:56;14.10;;;7.32;;
21000;SDS011;10658;50.920;12.238;2023-06-22T15:01:56;10.38;;;7.28;;
21000;SDS011;10658;50.920;12.238;2023-06-22T15:05:58;9.80;;;7.47;;
21000;SDS011;10658;50.920;12.238;2023-06-22T15:09:59;10.75;;;7.93;;
21000;SDS011;10658;50.920;12.238;2023-06-22T15:14:00;9.98;;;7.70;;
21000;SDS011;10658;50.920;12.238;2023-06-22T15:18:01;10.63;;;7.32;;
21000;SDS011;10658;50.920;12.238;2023-06-22T15:22:03;9.55;;;8.45;;
21000;SDS011;10658;50.920;12.238;2023-06-22T15:26:05;10.95;;;8.60;;
21000;SDS011;10658;50.920;12.238;2023-06-22T15:30:06;9.73;;;7.82;;
21000;SDS011;10658;50.920;12.238;2023-06-22T15:34:07;10.40;;;8.20;;
21000;SDS011;10658;50.920;12.238;2023-06-22T15:38:08;10.18;;;8.55;;
21000;SDS011;10658;50.920;12.238;2023-06-22T15:42:08;12.27;;;8.18;;
21000;SDS011;10658;50.920;12.238;2023-06-22T15:46:09;9.20;;;7.88;;
21000;SDS011;10658;50.920;12.238;2023-06-22T15:50:10;10.32;;;8.40;;
21000;SDS011;10658;50.920;12.238;2023-06-22T15:54:10;11.27;;;8.02;;
21000;SDS011;10658;50.920;12.238;2023-06-22T15:58:12;12.32;;;8.43;;
21000;SDS011;10658;50.920;12.238;2023-06-22T16:02:13;10.05;;;7.97;;
21000;SDS011;10658;50.920;12.238;2023-06-22T16:06:13;12.80;;;8.65;;
21000;SDS011;10658;50.920;12.238;2023-06-22T16:10:14;10.27;;;8.20;;
21000;SDS011;10658;50.920;12.238;2023-06-22T16:14:16;10.25;;;8.43;;
21000;SDS011;10658;50.920;12.238;2023-06-22T16:18:17;10.98;;;8.80;;
21000;SDS011;10658;50.920;12.238;2023-06-22T16:22:18;10.23;;;8.07;;
21000;SDS011;10658;50.920;12.238;2023-06-22T16:26:18;11.10;;;7.75;;
21000;SDS011;10658;50.920;12.238;2023-06-22T16:30:19;13.50;;;8.48;;
21000;SDS011;10658;50.920;12.238;2023-06-22T16:34:20;11.57;;;7.43;;
21000;SDS011;10658;50.920;12.238;2023-06-22T16:38:21;10.48;;;7.97;;
21000;SDS011;10658;50.920;12.238;2023-06-22T16:42:21;11.15;;;8.10;;
21000;SDS011;10658;50.920;12.238;2023-06-22T16:46:22;9.88;;;7.88;;
21000;SDS011;10658;50.920;12.238;2023-06-22T16:50:23;9.25;;;7.90;;
21000;SDS011;10658;50.920;12.238;2023-06-22T16:54:24;11.82;;;8.45;;
21000;SDS011;10658;50.920;12.238;2023-06-22T16:58:25;14.13;;;8.63;;
21000;SDS011;10658;50.920;12.238;2023-06-22T17:02:25;9.43;;;7.40;;
21000;SDS011;10658;50.920;12.238;2023-06-22T17:06:27;9.85;;;8.80;;
21000;SDS011;10658;50.920;12.238;2023-06-22T17:10:28;9.15;;;7.53;;
21000;SDS011;10658;50.920;12.238;2023-06-22T17:14:29;11.55;;;7.93;;
21000;SDS011;10658;50.920;12.238;2023-06-22T17:18:30;10.90;;;7.43;;
21000;SDS011;10658;50.920;12.238;2023-06-22T17:22:32;8.73;;;7.55;;
21000;SDS011;10658;50.920;12.238;2023-06-22T17:26:35;11.18;;;8.50;;
21000;SDS011;10658;50.920;12.238;2023-06-22T17:30:36;12.05;;;7.70;;
21000;SDS011;10658;50.920;12.238;2023-06-22T17:34:37;9.63;;;7.45;;
21000;SDS011;10658;50.920;12.238;2023-06-22T17:38:38;11.25;;;8.63;;
21000;SDS011;10658;50.920;12.238;2023-06-22T17:42:39;9.57;;;8.05;;
21000;SDS011;10658;50.920;12.238;2023-06-22T17:46:39;9.77;;;7.70;;
21000;SDS011;10658;50.920;12.238;2023-06-22T17:50:41;12.82;;;7.88;;
21000;SDS011;10658;50.920;12.238;2023-06-22T17:54:43;10.02;;;7.63;;
21000;SDS011;10658;50.920;12.238;2023-06-22T17:58:53;9.93;;;8.63;;
21000;SDS011;10658;50.920;12.238;2023-06-22T18:02:54;9.23;;;8.32;;
21000;SDS011;10658;50.920;12.238;2023-06-22T18:06:56;9.25;;;7.40;;
21000;SDS011;10658;50.920;12.238;2023-06-22T18:10:56;10.07;;;7.43;;
21000;SDS011;10658;50.920;12.238;2023-06-22T18:15:00;9.38;;;8.20;;
21000;SDS011;10658;50.920;12.238;2023-06-22T18:19:02;9.45;;;8.02;;
21000;SDS011;10658;50.920;12.238;2023-06-22T18:23:03;8.20;;;7.40;;
21000;SDS011;10658;50.920;12.238;2023-06-22T18:27:11;9.07;;;8.13;;
21000;SDS011;10658;50.920;12.238;2023-06-22T18:31:14;9.55;;;7.95;;
21000;SDS011;10658;50.920;12.238;2023-06-22T18:35:38;10.63;;;8.35;;
21000;SDS011;10658;50.920;12.238;2023-06-22T18:40:01;10.60;;;7.93;;
21000;SDS011;10658;50.920;12.238;2023-06-22T18:44:25;10.40;;;7.90;;
21000;SDS011;10658;50.920;12.238;2023-06-22T18:48:29;12.63;;;8.05;;
21000;SDS011;10658;50.920;12.238;2023-06-22T18:52:31;11.45;;;8.40;;
21000;SDS011;10658;50.920;12.238;2023-06-22T18:56:33;9.65;;;8.23;;
21000;SDS011;10658;50.920;12.238;2023-06-22T19:00:54;12.15;;;8.18;;
21000;SDS011;10658;50.920;12.238;2023-06-22T19:05:17;11.52;;;8.40;;
21000;SDS011;10658;50.920;12.238;2023-06-22T19:09:42;12.57;;;8.55;;
21000;SDS011;10658;50.920;12.238;2023-06-22T19:14:22;14.05;;;8.75;;
21000;SDS011;10658;50.920;12.238;2023-06-22T19:18:34;23.40;;;9.32;;
21000;SDS011;10658;50.920;12.238;2023-06-22T19:26:52;22.10;;;10.45;;
21000;SDS011;10658;50.920;12.238;2023-06-22T19:30:55;12.02;;;6.43;;
21000;SDS011;10658;50.920;12.238;2023-06-22T19:34:59;7.85;;;4.78;;
21000;SDS011;10658;50.920;12.238;2023-06-22T19:39:02;8.82;;;7.47;;
21000;SDS011;10658;50.920;12.238;2023-06-22T19:43:05;15.40;;;9.10;;
21000;SDS011;10658;50.920;12.238;2023-06-22T19:47:06;24.23;;;8.65;;
21000;SDS011;10658;50.920;12.238;2023-06-22T19:51:07;9.95;;;6.28;;
21000;SDS011;10658;50.920;12.238;2023-06-22T19:55:09;16.30;;;6.95;;
21000;SDS011;10658;50.920;12.238;2023-06-22T19:59:14;12.93;;;6.40;;
21000;SDS011;10658;50.920;12.238;2023-06-22T20:03:27;11.77;;;7.35;;
21000;SDS011;10658;50.920;12.238;2023-06-22T20:07:33;11.70;;;7.35;;
21000;SDS011;10658;50.920;12.238;2023-06-22T20:11:38;11.73;;;6.85;;
21000;SDS011;10658;50.920;12.238;2023-06-22T20:15:43;10.52;;;7.10;;
21000;SDS011;10658;50.920;12.238;2023-06-22T20:19:45;11.18;;;7.22;;
21000;SDS011;10658;50.920;12.238;2023-06-22T20:23:53;10.40;;;7.20;;
21000;SDS011;10658;50.920;12.238;2023-06-22T20:27:54;11.80;;;7.88;;
21000;SDS011;10658;50.920;12.238;2023-06-22T20:32:08;10.48;;;7.72;;
21000;SDS011;10658;50.920;12.238;2023-06-22T20:36:10;12.82;;;8.30;;
21000;SDS011;10658;50.920;12.238;2023-06-22T20:40:13;13.13;;;8.85;;
21000;SDS011;10658;50.920;12.238;2023-06-22T20:44:14;14.60;;;9.07;;
21000;SDS011;10658;50.920;12.238;2023-06-22T20:48:15;12.07;;;8.13;;
21000;SDS011;10658;50.920;12.238;2023-06-22T20:52:16;11.40;;;5.78;;
21000;SDS011;10658;50.920;12.238;2023-06-22T20:56:17;18.02;;;7.50;;
21000;SDS011;10658;50.920;12.238;2023-06-22T21:00:18;9.02;;;5.53;;
21000;SDS011;10658;50.920;12.238;2023-06-22T21:04:19;13.10;;;5.32;;
21000;SDS011;10658;50.920;12.238;2023-06-22T21:08:20;14.85;;;6.07;;
21000;SDS011;10658;50.920;12.238;2023-06-22T21:12:20;12.30;;;6.47;;
21000;SDS011;10658;50.920;12.238;2023-06-22T21:16:21;8.77;;;4.90;;
21000;SDS011;10658;50.920;12.238;2023-06-22T21:20:22;11.68;;;5.78;;
21000;SDS011;10658;50.920;12.238;2023-06-22T21:24:23;10.57;;;5.15;;
21000;SDS011;10658;50.920;12.238;2023-06-22T21:28:23;9.23;;;5.32;;
21000;SDS011;10658;50.920;12.238;2023-06-22T21:32:26;12.07;;;6.10;;
21000;SDS011;10658;50.920;12.238;2023-06-22T21:36:27;16.95;;;7.63;;
21000;SDS011;10658;50.920;12.238;2023-06-22T21:40:28;18.45;;;8.43;;
21000;SDS011;10658;50.920;12.238;2023-06-22T21:44:28;11.65;;;8.35;;
21000;SDS011;10658;50.920;12.238;2023-06-22T21:48:29;8.98;;;6.68;;
21000;SDS011;10658;50.920;12.238;2023-06-22T21:52:30;15.88;;;7.72;;
21000;SDS011;10658;50.920;12.238;2023-06-22T21:56:30;9.25;;;6.40;;
21000;SDS011;10658;50.920;12.238;2023-06-22T22:00:31;9.82;;;6.90;;
21000;SDS011;10658;50.920;12.238;2023-06-22T22:04:32;9.95;;;6.03;;
21000;SDS011;10658;50.920;12.238;2023-06-22T22:08:33;11.40;;;7.35;;
21000;SDS011;10658;50.920;12.238;2023-06-22T22:12:33;9.52;;;6.38;;
21000;SDS011;10658;50.920;12.238;2023-06-22T22:16:34;9.05;;;6.38;;
21000;SDS011;10658;50.920;12.238;2023-06-22T22:20:35;12.98;;;7.28;;
21000;SDS011;10658;50.920;12.238;2023-06-22T22:24:36;8.38;;;5.05;;
21000;SDS011;10658;50.920;12.238;2023-06-22T22:28:37;9.38;;;5.65;;
21000;SDS011;10658;50.920;12.238;2023-06-22T22:32:37;7.18;;;4.88;;
21000;SDS011;10658;50.920;12.238;2023-06-22T22:36:38;7.05;;;5.15;;
21000;SDS011;10658;50.920;12.238;2023-06-22T22:40:39;7.53;;;5.03;;
21000;SDS011;10658;50.920;12.238;2023-06-22T22:44:40;7.75;;;4.55;;
21000;SDS011;10658;50.920;12.238;2023-06-22T22:48:40;8.85;;;4.90;;
21000;SDS011;10658;50.920;12.238;2023-06-22T22:52:41;7.53;;;5.35;;
21000;SDS011;10658;50.920;12.238;2023-06-22T22:56:42;9.57;;;5.30;;
21000;SDS011;10658;50.920;12.238;2023-06-22T23:00:42;11.93;;;5.57;;
21000;SDS011;10658;50.920;12.238;2023-06-22T23:04:43;11.20;;;4.97;;
21000;SDS011;10658;50.920;12.238;2023-06-22T23:08:44;15.63;;;6.35;;
21000;SDS011;10658;50.920;12.238;2023-06-22T23:12:45;12.77;;;8.02;;
21000;SDS011;10658;50.920;12.238;2023-06-22T23:16:47;10.80;;;6.65;;
21000;SDS011;10658;50.920;12.238;2023-06-22T23:20:48;10.07;;;7.30;;
21000;SDS011;10658;50.920;12.238;2023-06-22T23:24:50;10.60;;;6.20;;
21000;SDS011;10658;50.920;12.238;2023-06-22T23:28:51;10.30;;;6.80;;
21000;SDS011;10658;50.920;12.238;2023-06-22T23:32:52;12.93;;;6.95;;
21000;SDS011;10658;50.920;12.238;2023-06-22T23:36:53;10.93;;;7.03;;
21000;SDS011;10658;50.920;12.238;2023-06-22T23:40:54;10.80;;;6.95;;
21000;SDS011;10658;50.920;12.238;2023-06-22T23:44:55;10.50;;;7.40;;
21000;SDS011;10658;50.920;12.238;2023-06-22T23:48:55;11.80;;;7.95;;
21000;SDS011;10658;50.920;12.238;2023-06-22T23:52:56;13.02;;;8.00;;
21000;SDS011;10658;50.920;12.238;2023-06-22T23:56:57;10.68;;;7.28;;
